Aérodrome :
LOGIN :

S'inscrire | Disclaimer

   EN    FR    IT 

 










Légende :    VFR   VFR Marginal   IFR   IFR Intensif   IFR Très Intensif
Visi : 
Plafond : 
>= 8 km
>= 3000ft
5 à 8 km
1000 à 3000 ft
1500m à 5 km
500 à 1000 ft
800 à 1500m
200 à 500 ft
< 800m
< 200 ft
Symboles :   Orages  Brouillard  Fortes neiges  Fortes précipitations  Vent > 20 kt
SIGMETs :   Divers  Orages  Givrage  Turbulence  Onde Orograph.  Cendres Volcan.






- Altitude de l'aérodrome : 299 ft
- Code IATA : EDM


LFRI - La Roche Sur Yon - Les Ajoncs

DERNIER METAR :
  • 090130Z AUTO 36003KT CAVOK 19/16 Q1017

METARs EXPIRÉS :
  • 090100Z AUTO 35006KT CAVOK 20/17 Q1017
  • 090030Z AUTO 36006KT CAVOK 19/17 Q1017
  • 090000Z AUTO 34004KT CAVOK 19/17 Q1017
  • 082330Z AUTO 32004KT CAVOK 19/17 Q1017
  • 082300Z AUTO 30003KT CAVOK 20/17 Q1017

TAF TAF LFRI
Valide du 08 à 18h jusqu'au 09 à 18h UTC


081700Z 0818/0918 26006KT CAVOK
PROB30
TEMPO 0912/0918 -SHRA SCT090TCU



MET'MAP, la Météo Aéronautique d'un coup d'oeil ! - Copyright ORBIFLY Décembre 2007 - Disclaimer

ORBIFLY MET'MAP TEAM :

Programmation & Développement : Alexandra Zaïnal
Sur une idée originale de : Baudouin d'Aumeries
Assistance à la programmation : Marc-Olivier Méhu
Soutien technique & logistique : Manuel Goepfert

Contact : metmap@orbifly.com




SOURCES & CREDITS :

   NOAA